Lady Ayan — 3EET5 — position and weather

sailwx.info

Track history (hours):
 
Tides and Currents Weather Stations Pressure Air Temp Water Temp Dewpoint Dewpoint Depression Visibility Wind Speed Wind Dir Waves Ship Positions

Lady Ayan

Last reported at 2018-May-02 12:57 UTC. Time now 2018-May-27 11:32 UTC.
Position N 40°01' E 026°12'.
Warning: this ship's position is 24 days out of date.

Length 95 m; draft 3.7 m.

Type: Cargo ship. MMSI: 372212000.

Date/timePositionNaut miles runAvg speedWind from/ knotsBaromVisibWave heightAir tempDewpointWater temp
2018-May-02 12:57N 40°01' E 026°12'3 7.1
2018-May-02 12:30N 39°60' E 026°08'25 8.5
2018-May-02 09:30N 39°36' E 025°59'327 9.7
2018-Apr-30 23:43N 35°20' E 030°15'411.3
2018-Apr-30 23:23N 35°17' E 030°19'411.4
2018-Apr-30 23:00N 35°15' E 030°23'611.3
2018-Apr-30 22:31N 35°12' E 030°28'611.2
2018-Apr-30 21:59N 35°08' E 030°34'511.1
2018-Apr-30 21:30N 35°05' E 030°39'511.0
2018-Apr-30 21:00N 35°02' E 030°45'510.9
2018-Apr-30 20:30N 34°58' E 030°50'810.8
2018-Apr-30 19:47N 34°54' E 030°58'610.7
2018-Apr-30 19:16N 34°50' E 031°03'310.6
2018-Apr-30 19:00N 34°49' E 031°06'910.4
2018-Apr-30 18:10N 34°44' E 031°15'210.4
2018-Apr-30 18:00N 34°43' E 031°16'510.4
2018-Apr-30 17:31N 34°40' E 031°21'510.4
2018-Apr-30 17:01N 34°37' E 031°26'610.3
2018-Apr-30 16:28N 34°33' E 031°32'1010.4
2018-Apr-30 15:30N 34°27' E 031°42'510.5
2018-Apr-30 15:00N 34°24' E 031°47'510.6
2018-Apr-30 14:30N 34°22' E 031°52'510.6
2018-Apr-30 14:01N 34°18' E 031°57'510.6
2018-Apr-30 13:30N 34°15' E 032°03'510.7
2018-Apr-30 13:00N 34°12' E 032°08'8110.7
2018-Apr-30 05:30N 33°24' E 033°26'510.3
2018-Apr-30 05:01N 33°21' E 033°31'510.3
2018-Apr-30 04:31N 33°18' E 033°36'510.5
2018-Apr-30 04:00N 33°15' E 033°41'3610.4
2018-Apr-30 00:34N 32°60' E 034°20'111.3
2018-Apr-30 00:29N 32°59' E 034°21'511.2
2018-Apr-30 00:00N 32°58' E 034°27'611.0
2018-Apr-29 23:30N 32°58' E 034°33'510.9
2018-Apr-29 23:00N 32°56' E 034°40'510.9
2018-Apr-29 22:30N 32°55' E 034°46'510.7
2018-Apr-29 22:00N 32°54' E 034°52'510.7
2018-Apr-29 21:30N 32°52' E 034°58'2 0.0
2018-Apr-28 05:18N 32°51' E 035°00'0 0.0
2018-Apr-28 00:36N 32°52' E 035°00'0 0.0
2018-Apr-28 00:12N 32°52' E 035°00'0 0.0
2018-Apr-28 00:00N 32°52' E 035°00'  
2018-Apr-23 18:39N 32°51' E 035°00'0 0.0
2018-Apr-23 18:15N 32°51' E 035°00'0 0.0
2018-Apr-23 09:59N 32°52' E 035°00'3 6.0
2018-Apr-23 09:27N 32°52' E 034°57'4 9.7
2018-Apr-23 09:00N 32°54' E 034°52'5 9.9
2018-Apr-23 08:27N 32°55' E 034°45'  
Track history (hours):
 
Tides and Currents Weather Stations Pressure Air Temp Water Temp Dewpoint Dewpoint Depression Visibility Wind Speed Wind Dir Waves Ship Positions

Lady Ayan

Last reported at 2018-May-02 12:57 UTC. Time now 2018-May-27 11:32 UTC.
Position N 40°01' E 026°12'.
Warning: this ship's position is 24 days out of date.

Length 95 m; draft 3.7 m.

Type: Cargo ship. MMSI: 372212000.

Date/timePositionNaut miles runAvg speedWind from/ knotsBaromVisibWave heightAir tempDewpointWater temp
2018-May-02 12:57N 40°01' E 026°12'3 7.1
2018-May-02 12:30N 39°60' E 026°08'25 8.5
2018-May-02 09:30N 39°36' E 025°59'327 9.7
2018-Apr-30 23:43N 35°20' E 030°15'411.3
2018-Apr-30 23:23N 35°17' E 030°19'411.4
2018-Apr-30 23:00N 35°15' E 030°23'611.3
2018-Apr-30 22:31N 35°12' E 030°28'611.2
2018-Apr-30 21:59N 35°08' E 030°34'511.1
2018-Apr-30 21:30N 35°05' E 030°39'511.0
2018-Apr-30 21:00N 35°02' E 030°45'510.9
2018-Apr-30 20:30N 34°58' E 030°50'810.8
2018-Apr-30 19:47N 34°54' E 030°58'610.7
2018-Apr-30 19:16N 34°50' E 031°03'310.6
2018-Apr-30 19:00N 34°49' E 031°06'910.4
2018-Apr-30 18:10N 34°44' E 031°15'210.4
2018-Apr-30 18:00N 34°43' E 031°16'510.4
2018-Apr-30 17:31N 34°40' E 031°21'510.4
2018-Apr-30 17:01N 34°37' E 031°26'610.3
2018-Apr-30 16:28N 34°33' E 031°32'1010.4
2018-Apr-30 15:30N 34°27' E 031°42'510.5
2018-Apr-30 15:00N 34°24' E 031°47'510.6
2018-Apr-30 14:30N 34°22' E 031°52'510.6
2018-Apr-30 14:01N 34°18' E 031°57'510.6
2018-Apr-30 13:30N 34°15' E 032°03'510.7
2018-Apr-30 13:00N 34°12' E 032°08'8110.7
2018-Apr-30 05:30N 33°24' E 033°26'510.3
2018-Apr-30 05:01N 33°21' E 033°31'510.3
2018-Apr-30 04:31N 33°18' E 033°36'510.5
2018-Apr-30 04:00N 33°15' E 033°41'3610.4
2018-Apr-30 00:34N 32°60' E 034°20'111.3
2018-Apr-30 00:29N 32°59' E 034°21'511.2
2018-Apr-30 00:00N 32°58' E 034°27'611.0
2018-Apr-29 23:30N 32°58' E 034°33'510.9
2018-Apr-29 23:00N 32°56' E 034°40'510.9
2018-Apr-29 22:30N 32°55' E 034°46'510.7
2018-Apr-29 22:00N 32°54' E 034°52'510.7
2018-Apr-29 21:30N 32°52' E 034°58'2 0.0
2018-Apr-28 05:18N 32°51' E 035°00'0 0.0
2018-Apr-28 00:36N 32°52' E 035°00'0 0.0
2018-Apr-28 00:12N 32°52' E 035°00'0 0.0
2018-Apr-28 00:00N 32°52' E 035°00'  
2018-Apr-23 18:39N 32°51' E 035°00'0 0.0
2018-Apr-23 18:15N 32°51' E 035°00'0 0.0
2018-Apr-23 09:59N 32°52' E 035°00'3 6.0
2018-Apr-23 09:27N 32°52' E 034°57'4 9.7
2018-Apr-23 09:00N 32°54' E 034°52'5 9.9
2018-Apr-23 08:27N 32°55' E 034°45'  

Dump ship's entire track history